Time;durP1;ratioP1;P1;durP2;ratioP2;P2;SDS_P1;SDS_P2;PMS_P1;PMS_P2;Temp;Humidity;BMP_temperature;BMP_pressure;BME280_temperature;BME280_humidity;BME280_pressure;Samples;Min_cycle;Max_cycle;Signal;HPM_P1;HPM_P2
2023/03/03 00:01:10;;;;;;;38.92;16.52;;;2.20;99.90;;;;;;5091660;28;20040;-63
2023/03/03 00:03:36;;;;;;;38.92;16.40;;;2.20;99.90;;;;;;5090710;28;20081;-63
2023/03/03 00:06:03;;;;;;;35.42;15.48;;;2.20;99.90;;;;;;5087031;28;20050;-62
2023/03/03 00:08:29;;;;;;;40.92;15.77;;;2.20;99.90;;;;;;5086466;28;20048;-63
2023/03/03 00:10:54;;;;;;;36.35;15.98;;;2.10;99.90;;;;;;5092309;28;20455;-63
2023/03/03 00:13:25;;;;;;;35.80;14.82;;;2.10;99.90;;;;;;5089466;28;20029;-63
2023/03/03 00:15:52;;;;;;;33.92;14.65;;;2.10;99.90;;;;;;5085985;28;20444;-63
2023/03/03 00:18:24;;;;;;;33.85;14.95;;;2.10;99.90;;;;;;5092711;28;20138;-63
2023/03/03 00:20:56;;;;;;;33.67;14.48;;;2.10;99.90;;;;;;5091776;28;20067;-63
2023/03/03 00:23:30;;;;;;;31.33;13.13;;;2.10;99.90;;;;;;5084214;28;20044;-62
2023/03/03 00:25:57;;;;;;;28.17;11.98;;;2.00;99.90;;;;;;5084990;28;20055;-62
2023/03/03 00:28:27;;;;;;;34.17;14.75;;;2.00;99.90;;;;;;5091502;28;20531;-61
2023/03/03 00:30:55;;;;;;;37.50;14.15;;;2.00;99.90;;;;;;5085380;28;20032;-61
2023/03/03 00:33:26;;;;;;;39.55;15.48;;;2.00;99.90;;;;;;5086428;28;20067;-61
2023/03/03 00:35:52;;;;;;;;;;;2.00;99.90;;;;;;5091378;28;20039;-61
2023/03/03 00:38:18;;;;;;;34.08;14.00;;;2.00;99.90;;;;;;5086294;28;20652;-61
2023/03/03 00:40:45;;;;;;;32.03;14.00;;;2.00;99.90;;;;;;5090992;28;20044;-61
2023/03/03 00:43:21;;;;;;;35.53;14.75;;;2.00;99.90;;;;;;5092651;28;20044;-61
2023/03/03 00:45:51;;;;;;;36.22;14.13;;;2.00;99.90;;;;;;5092560;28;20552;-61
2023/03/03 00:48:22;;;;;;;34.45;15.48;;;2.00;99.90;;;;;;5073461;28;20454;-62
2023/03/03 00:50:50;;;;;;;35.25;14.13;;;2.00;99.90;;;;;;5086179;28;20761;-61
2023/03/03 00:53:20;;;;;;;40.50;15.88;;;2.10;99.90;;;;;;5092628;28;20089;-61
2023/03/03 00:55:48;;;;;;;39.75;16.00;;;2.10;99.90;;;;;;5088431;28;20044;-61
2023/03/03 00:58:14;;;;;;;36.78;14.82;;;2.10;99.90;;;;;;5080257;28;20032;-62
2023/03/03 01:00:41;;;;;;;31.92;12.70;;;2.10;99.90;;;;;;5092075;28;20103;-61
2023/03/03 01:03:11;;;;;;;39.38;14.90;;;2.10;99.90;;;;;;5088544;28;20047;-62
2023/03/03 01:05:36;;;;;;;26.38;11.93;;;2.10;99.90;;;;;;5085368;28;20042;-61
2023/03/03 01:08:03;;;;;;;26.58;12.57;;;2.10;99.90;;;;;;5091546;28;20507;-61
2023/03/03 01:10:33;;;;;;;29.05;12.57;;;2.10;99.90;;;;;;5092161;28;20071;-61
2023/03/03 01:12:59;;;;;;;32.80;13.70;;;2.10;99.90;;;;;;5081838;28;20036;-63
2023/03/03 01:15:24;;;;;;;30.80;13.63;;;2.10;99.90;;;;;;5083661;28;20190;-63
2023/03/03 01:17:50;;;;;;;32.33;14.45;;;2.10;99.90;;;;;;5089075;28;20047;-62
2023/03/03 01:20:16;;;;;;;31.50;14.25;;;2.10;99.90;;;;;;5086256;28;20040;-63
2023/03/03 01:22:42;;;;;;;35.17;14.63;;;2.10;99.90;;;;;;5083236;28;20036;-62
2023/03/03 01:25:08;;;;;;;34.30;15.15;;;2.10;99.90;;;;;;5089424;28;20063;-63
2023/03/03 01:27:34;;;;;;;37.05;14.90;;;2.10;99.90;;;;;;5088437;28;22584;-63
2023/03/03 01:30:01;;;;;;;32.50;14.65;;;2.10;99.90;;;;;;5082137;28;20032;-63
2023/03/03 01:32:27;;;;;;;38.50;16.23;;;2.10;99.90;;;;;;5081836;28;20051;-63
2023/03/03 01:34:53;;;;;;;34.30;13.65;;;2.10;99.90;;;;;;5091634;28;20043;-63
2023/03/03 01:37:19;;;;;;;30.08;12.65;;;2.10;99.90;;;;;;5086063;28;20035;-63
2023/03/03 01:39:50;;;;;;;32.03;14.95;;;2.10;99.90;;;;;;5078793;28;20036;-63
2023/03/03 01:42:16;;;;;;;32.25;14.70;;;2.10;99.90;;;;;;5089911;28;20036;-63
2023/03/03 01:44:42;;;;;;;37.08;15.93;;;2.10;99.90;;;;;;5088377;28;20042;-59
2023/03/03 01:47:20;;;;;;;39.33;15.82;;;2.10;99.90;;;;;;5081991;28;20094;-63
2023/03/03 01:49:54;;;;;;;34.60;15.10;;;2.10;99.90;;;;;;5083996;28;20047;-63
2023/03/03 01:52:42;;;;;;;33.92;15.52;;;2.10;99.90;;;;;;5090997;28;20076;-63
2023/03/03 01:55:14;;;;;;;37.55;15.63;;;2.10;99.90;;;;;;5083112;28;20517;-63
2023/03/03 01:57:44;;;;;;;36.55;15.25;;;2.10;99.90;;;;;;5088338;28;20036;-63
2023/03/03 02:00:11;;;;;;;36.97;15.57;;;2.10;99.90;;;;;;5089229;28;20047;-63
2023/03/03 02:02:38;;;;;;;35.67;15.35;;;2.10;99.90;;;;;;5083124;28;20051;-63
2023/03/03 02:05:05;;;;;;;33.58;14.23;;;2.10;99.90;;;;;;5079124;28;20071;-63
2023/03/03 02:07:31;;;;;;;32.85;14.82;;;2.10;99.90;;;;;;5084729;28;20044;-63
2023/03/03 02:10:09;;;;;;;32.08;14.95;;;2.20;99.90;;;;;;5086538;28;20040;-62
2023/03/03 02:12:37;;;;;;;38.22;15.85;;;2.20;99.90;;;;;;5086512;28;20085;-63
2023/03/03 02:15:15;;;;;;;32.03;14.77;;;2.20;99.90;;;;;;5090926;28;20081;-64
2023/03/03 02:17:41;;;;;;;37.58;15.93;;;2.20;99.90;;;;;;5084661;28;20112;-64
2023/03/03 02:20:16;;;;;;;37.08;15.30;;;2.20;99.90;;;;;;5080646;28;20128;-64
2023/03/03 02:23:00;;;;;;;39.22;15.65;;;2.20;99.90;;;;;;5088868;28;20052;-63
2023/03/03 02:25:37;;;;;;;37.40;14.82;;;2.20;99.90;;;;;;5091067;28;20066;-63
2023/03/03 02:28:03;;;;;;;36.08;14.82;;;2.10;99.90;;;;;;5083526;28;20046;-64
2023/03/03 02:30:29;;;;;;;36.95;13.85;;;2.20;99.90;;;;;;5084673;28;20032;-63
2023/03/03 02:32:54;;;;;;;40.75;14.35;;;2.20;99.90;;;;;;5089674;28;20066;-63
2023/03/03 02:35:37;;;;;;;36.28;12.15;;;2.10;99.90;;;;;;5082972;28;20418;-63
2023/03/03 02:38:17;;;;;;;35.17;13.73;;;2.20;99.90;;;;;;5089350;28;20036;-64
2023/03/03 02:41:10;;;;;;;29.63;11.27;;;2.20;99.90;;;;;;5081722;28;20044;-63
2023/03/03 02:44:04;;;;;;;26.63;9.57;;;2.10;99.90;;;;;;5078095;28;20082;-63
2023/03/03 02:46:35;;;;;;;30.40;9.77;;;2.10;99.90;;;;;;5074486;28;20126;-63
2023/03/03 02:49:02;;;;;;;27.83;9.35;;;2.20;99.90;;;;;;5089305;28;20076;-63
2023/03/03 02:51:28;;;;;;;40.72;10.65;;;2.10;99.90;;;;;;5090814;28;20087;-64
2023/03/03 02:53:53;;;;;;;37.22;10.57;;;2.10;99.90;;;;;;5076960;28;20095;-63
2023/03/03 02:56:19;;;;;;;42.45;10.93;;;2.10;99.90;;;;;;5083172;28;20474;-63
2023/03/03 02:58:44;;;;;;;38.53;11.00;;;2.10;99.90;;;;;;5093046;28;20057;-63
2023/03/03 03:01:10;;;;;;;27.80;10.15;;;2.10;99.90;;;;;;5088095;28;20044;-63
2023/03/03 03:03:36;;;;;;;44.15;12.50;;;2.10;99.90;;;;;;5085242;28;20516;-63
2023/03/03 03:06:02;;;;;;;29.92;10.55;;;2.00;99.90;;;;;;5093866;28;20032;-63
2023/03/03 03:08:27;;;;;;;29.10;11.20;;;2.00;99.90;;;;;;5092503;28;20043;-63
2023/03/03 03:10:55;;;;;;;45.70;12.15;;;2.00;99.90;;;;;;5090376;28;20044;-63
2023/03/03 03:13:21;;;;;;;39.90;12.32;;;2.00;99.90;;;;;;5091344;28;20044;-63
2023/03/03 03:15:47;;;;;;;31.13;11.98;;;2.00;99.90;;;;;;5094349;28;20062;-61
2023/03/03 03:18:14;;;;;;;42.10;11.95;;;2.00;99.90;;;;;;5090528;28;20044;-61
2023/03/03 03:20:40;;;;;;;45.83;12.55;;;2.00;99.90;;;;;;5092791;28;20048;-62
2023/03/03 03:23:07;;;;;;;45.55;13.48;;;2.10;99.90;;;;;;5094289;28;20482;-62
2023/03/03 03:25:33;;;;;;;44.03;11.48;;;2.10;99.90;;;;;;5094249;28;20036;-62
2023/03/03 03:27:58;;;;;;;42.47;12.27;;;2.00;99.90;;;;;;5087438;28;20087;-63
2023/03/03 03:30:24;;;;;;;41.35;11.20;;;2.10;99.90;;;;;;5092552;28;20046;-61
2023/03/03 03:32:50;;;;;;;48.03;11.52;;;2.10;99.90;;;;;;5094236;28;20035;-62
2023/03/03 03:35:16;;;;;;;36.17;11.57;;;2.10;99.90;;;;;;5085602;28;20033;-61
2023/03/03 03:37:42;;;;;;;55.00;12.10;;;2.10;99.90;;;;;;5083487;28;20508;-62
2023/03/03 03:40:08;;;;;;;52.15;13.00;;;2.10;99.90;;;;;;5093743;28;20698;-63
2023/03/03 03:42:34;;;;;;;41.17;11.65;;;2.10;99.90;;;;;;5093843;28;20518;-64
2023/03/03 03:44:59;;;;;;;41.65;12.50;;;2.10;99.90;;;;;;5082470;28;20040;-61
2023/03/03 03:47:25;;;;;;;41.03;10.93;;;2.10;99.90;;;;;;5091439;28;20040;-62
2023/03/03 03:49:51;;;;;;;49.45;12.15;;;2.10;99.90;;;;;;5093541;28;20074;-62
2023/03/03 03:52:16;;;;;;;95.18;14.38;;;2.10;99.90;;;;;;5080350;28;20077;-62
2023/03/03 03:54:42;;;;;;;73.53;11.68;;;2.10;99.90;;;;;;5078487;28;20032;-64
2023/03/03 03:57:07;;;;;;;74.13;11.68;;;2.10;99.90;;;;;;5093330;28;20422;-64
2023/03/03 03:59:33;;;;;;;79.35;12.27;;;2.10;99.90;;;;;;5093252;28;20064;-64
2023/03/03 04:01:59;;;;;;;66.47;11.57;;;2.10;99.90;;;;;;5080760;28;20079;-63
2023/03/03 04:04:24;;;;;;;69.57;11.48;;;2.10;99.90;;;;;;5088886;28;20051;-64
2023/03/03 04:06:50;;;;;;;73.32;12.38;;;2.20;99.90;;;;;;5093140;28;20383;-63
2023/03/03 04:09:15;;;;;;;47.03;11.30;;;2.20;99.90;;;;;;5081419;28;20080;-63
2023/03/03 04:11:41;;;;;;;72.03;11.75;;;2.20;99.90;;;;;;5091014;28;20058;-63
2023/03/03 04:14:07;;;;;;;40.45;9.85;;;2.20;99.90;;;;;;5092325;28;20047;-64
2023/03/03 04:16:32;;;;;;;65.25;11.90;;;2.20;99.90;;;;;;5093227;28;20638;-63
2023/03/03 04:18:58;;;;;;;49.70;10.43;;;2.20;99.90;;;;;;5081325;28;20031;-63
2023/03/03 04:21:24;;;;;;;59.63;10.55;;;2.20;99.90;;;;;;5090587;28;20509;-63
2023/03/03 04:23:50;;;;;;;42.63;12.13;;;2.20;99.90;;;;;;5093041;28;20062;-62
2023/03/03 04:26:15;;;;;;;71.68;11.70;;;2.20;99.90;;;;;;5078766;28;20509;-64
2023/03/03 04:28:41;;;;;;;53.75;12.48;;;2.20;99.90;;;;;;5085986;28;20040;-63
2023/03/03 04:31:07;;;;;;;64.47;11.88;;;2.20;99.90;;;;;;5090348;28;20048;-64
2023/03/03 04:33:32;;;;;;;41.00;11.50;;;2.20;99.90;;;;;;5083697;28;20044;-63
2023/03/03 04:35:58;;;;;;;84.93;11.65;;;2.30;99.90;;;;;;5085937;28;20074;-63
2023/03/03 04:38:24;;;;;;;62.35;11.15;;;2.20;99.90;;;;;;5091498;28;20036;-63
2023/03/03 04:40:49;;;;;;;88.10;11.65;;;2.30;99.90;;;;;;5091122;28;20044;-64
2023/03/03 04:43:15;;;;;;;77.70;11.88;;;2.30;99.90;;;;;;5081924;28;20419;-63
2023/03/03 04:45:41;;;;;;;65.70;11.23;;;2.30;99.90;;;;;;5091699;28;20032;-64
2023/03/03 04:48:07;;;;;;;60.47;11.10;;;2.30;99.90;;;;;;5090272;28;20093;-62
2023/03/03 04:50:33;;;;;;;53.88;11.63;;;2.20;99.90;;;;;;5083925;22;20044;-65
2023/03/03 04:52:59;;;;;;;47.47;9.82;;;2.30;99.90;;;;;;5062807;28;20037;-65
2023/03/03 04:55:25;;;;;;;91.95;12.45;;;2.30;99.90;;;;;;5050668;28;20095;-65
2023/03/03 04:57:50;;;;;;;61.78;11.23;;;2.30;99.90;;;;;;5054161;28;20041;-65
2023/03/03 05:03:47;;;;;;;76.80;11.47;;;2.30;99.90;;;;;;5313128;22;20391;-67
2023/03/03 05:06:13;;;;;;;72.90;10.80;;;2.30;99.90;;;;;;5042131;28;20103;-66
2023/03/03 05:08:39;;;;;;;72.32;10.05;;;2.40;99.90;;;;;;5029301;28;20057;-67
2023/03/03 05:11:04;;;;;;;76.53;11.05;;;2.30;99.90;;;;;;5629505;22;20044;-65
2023/03/03 05:13:30;;;;;;;69.15;11.20;;;2.30;99.90;;;;;;5040268;28;20033;-64
2023/03/03 05:15:56;;;;;;;69.15;11.55;;;2.30;99.90;;;;;;5035735;28;20033;-64
2023/03/03 05:18:23;;;;;;;90.68;12.57;;;2.40;99.90;;;;;;5048202;28;20036;-64
2023/03/03 05:20:49;;;;;;;109.63;10.75;;;2.40;99.90;;;;;;5036879;28;20056;-64
2023/03/03 05:28:26;;;;;;;82.32;10.45;;;2.40;99.90;;;;;;6092917;22;20355;-66
2023/03/03 05:30:51;;;;;;;102.35;11.32;;;2.40;99.90;;;;;;5051472;28;20045;-66
2023/03/03 05:33:17;;;;;;;85.82;9.65;;;2.40;99.90;;;;;;5057904;28;20090;-66
2023/03/03 05:43:23;;;;;;;57.80;10.75;;;2.40;99.90;;;;;;5068104;28;20044;-65
2023/03/03 05:45:55;;;;;;;43.78;9.30;;;2.40;99.90;;;;;;5285024;22;20311;-65
2023/03/03 05:53:31;;;;;;;71.53;9.75;;;2.50;99.90;;;;;;5249162;22;20065;-65
2023/03/03 05:55:57;;;;;;;90.80;10.55;;;2.50;99.90;;;;;;5033400;28;20041;-64
2023/03/03 05:58:23;;;;;;;53.85;9.63;;;2.50;99.90;;;;;;5021957;28;20041;-65
2023/03/03 06:00:48;;;;;;;71.22;10.45;;;2.50;99.90;;;;;;5038487;28;20626;-67
2023/03/03 06:03:15;;;;;;;89.68;11.00;;;2.50;99.90;;;;;;5042502;28;20502;-64
2023/03/03 06:05:41;;;;;;;51.28;9.82;;;2.50;99.90;;;;;;5356365;22;20040;-63
2023/03/03 06:08:07;;;;;;;42.78;10.77;;;2.50;99.90;;;;;;5034799;28;20045;-63
2023/03/03 06:10:32;;;;;;;110.32;11.10;;;2.50;99.90;;;;;;5043749;28;20056;-63
2023/03/03 06:12:58;;;;;;;58.08;9.68;;;2.50;99.90;;;;;;5050581;28;20037;-64
2023/03/03 06:15:24;;;;;;;34.00;9.10;;;2.50;99.90;;;;;;5044387;28;20401;-63
2023/03/03 06:17:50;;;;;;;43.08;9.40;;;2.50;99.90;;;;;;5029499;28;20683;-63
2023/03/03 06:20:15;;;;;;;34.53;9.98;;;2.50;99.90;;;;;;5030461;28;20095;-62
2023/03/03 06:22:41;;;;;;;38.13;12.20;;;2.50;99.90;;;;;;5008257;28;20541;-63
2023/03/03 06:25:07;;;;;;;54.10;10.00;;;2.50;99.90;;;;;;5030322;28;20128;-63
2023/03/03 06:27:33;;;;;;;36.47;9.90;;;2.50;99.90;;;;;;5030668;28;20573;-64
2023/03/03 06:29:58;;;;;;;62.50;10.90;;;2.60;99.90;;;;;;5028593;28;20046;-63
2023/03/03 06:32:24;;;;;;;39.40;11.05;;;2.60;99.90;;;;;;5027886;28;20044;-63
2023/03/03 06:34:49;;;;;;;47.35;11.05;;;2.60;99.90;;;;;;5016801;28;20462;-64
2023/03/03 06:37:15;;;;;;;68.38;11.25;;;2.60;99.90;;;;;;5035146;28;20033;-64
2023/03/03 06:39:41;;;;;;;53.28;12.02;;;2.70;99.90;;;;;;5024406;28;20594;-63
2023/03/03 06:42:08;;;;;;;36.00;10.73;;;2.70;99.90;;;;;;5034267;28;20049;-64
2023/03/03 06:44:34;;;;;;;28.92;10.35;;;2.70;99.90;;;;;;5034781;28;20643;-64
2023/03/03 06:47:00;;;;;;;37.55;10.45;;;2.70;99.90;;;;;;5031629;28;20041;-63
2023/03/03 06:49:26;;;;;;;45.53;10.73;;;2.70;99.90;;;;;;5046503;28;20045;-62
2023/03/03 06:51:52;;;;;;;35.50;11.18;;;2.70;99.90;;;;;;5034372;28;20033;-63
2023/03/03 06:54:25;;;;;;;30.10;11.45;;;2.80;99.90;;;;;;5034861;28;20510;-64
2023/03/03 06:56:55;;;;;;;31.20;10.40;;;2.80;99.90;;;;;;5026904;28;20033;-63
2023/03/03 06:59:21;;;;;;;24.42;9.85;;;2.80;99.90;;;;;;5034818;28;20164;-63
2023/03/03 07:01:48;;;;;;;30.40;10.85;;;2.80;99.90;;;;;;5034878;28;20194;-64
2023/03/03 07:04:32;;;;;;;24.85;9.38;;;2.90;99.90;;;;;;5039114;28;20037;-63
2023/03/03 07:07:04;;;;;;;30.55;11.52;;;2.90;99.90;;;;;;5045806;28;20495;-63
2023/03/03 07:09:30;;;;;;;31.75;11.20;;;2.90;99.90;;;;;;5033525;28;20052;-64
2023/03/03 07:12:01;;;;;;;31.83;10.60;;;3.00;99.90;;;;;;5031086;28;20040;-63
2023/03/03 07:14:28;;;;;;;36.03;10.30;;;3.00;99.90;;;;;;5034270;28;20075;-65
2023/03/03 07:17:00;;;;;;;37.25;11.88;;;3.00;99.90;;;;;;5033886;28;20037;-63
2023/03/03 07:19:35;;;;;;;41.35;12.55;;;3.10;99.90;;;;;;5033967;28;20499;-64
2023/03/03 07:22:14;;;;;;;32.65;12.10;;;3.10;99.90;;;;;;5030600;28;20046;-64
2023/03/03 07:24:42;;;;;;;31.60;11.00;;;3.20;99.90;;;;;;5029092;28;20099;-63
2023/03/03 07:27:22;;;;;;;33.30;11.32;;;3.20;99.90;;;;;;5033537;28;20626;-63
2023/03/03 07:29:50;;;;;;;32.95;11.52;;;3.20;99.90;;;;;;5036191;28;20057;-64
2023/03/03 07:32:40;;;;;;;35.17;11.93;;;3.30;99.90;;;;;;5033096;28;20412;-64
2023/03/03 07:35:32;;;;;;;28.15;11.05;;;3.30;99.90;;;;;;5034041;28;20112;-64
2023/03/03 07:37:58;;;;;;;39.78;12.65;;;3.40;99.90;;;;;;5019016;28;20083;-63
2023/03/03 07:40:37;;;;;;;34.17;11.95;;;3.50;99.90;;;;;;5026672;28;20048;-64
2023/03/03 07:43:33;;;;;;;28.25;11.48;;;3.50;99.90;;;;;;5033266;28;20037;-63
2023/03/03 07:46:26;;;;;;;25.80;9.68;;;3.50;99.90;;;;;;5026847;28;20057;-64
2023/03/03 07:48:53;;;;;;;30.15;10.43;;;3.60;99.90;;;;;;5031121;28;20045;-62
2023/03/03 07:51:35;;;;;;;32.00;11.43;;;3.60;99.90;;;;;;5033011;28;20045;-63
2023/03/03 07:54:27;;;;;;;31.90;11.35;;;3.70;99.90;;;;;;5036780;28;20532;-64
2023/03/03 07:57:15;;;;;;;27.15;10.27;;;3.70;99.90;;;;;;5026311;28;20091;-63
2023/03/03 07:59:47;;;;;;;33.25;11.40;;;3.70;99.90;;;;;;5028832;28;20049;-63
2023/03/03 08:02:40;;;;;;;31.65;11.07;;;3.80;99.90;;;;;;5029810;28;20116;-63
2023/03/03 08:05:34;;;;;;;31.00;11.57;;;3.90;99.90;;;;;;5038913;28;20567;-61
2023/03/03 08:08:24;;;;;;;32.10;11.35;;;4.00;99.90;;;;;;5038876;28;20063;-63
2023/03/03 08:10:59;;;;;;;29.13;10.10;;;4.00;99.90;;;;;;5041731;28;20037;-63
2023/03/03 08:13:39;;;;;;;30.15;10.98;;;4.10;99.90;;;;;;5032031;28;20498;-63
2023/03/03 08:16:08;;;;;;;25.90;10.60;;;4.20;99.90;;;;;;5037362;28;20502;-63
2023/03/03 08:18:36;;;;;;;25.45;11.43;;;4.20;99.90;;;;;;5027230;28;20033;-63
2023/03/03 08:21:07;;;;;;;24.98;10.75;;;4.30;99.90;;;;;;5041893;28;20044;-63
2023/03/03 08:23:33;;;;;;;;;;;4.40;99.90;;;;;;5038081;28;20444;-63
2023/03/03 08:25:58;;;;;;;29.58;11.35;;;4.40;99.90;;;;;;5030994;28;19917;-65
2023/03/03 08:28:24;;;;;;;27.90;9.80;;;4.50;99.90;;;;;;5027960;28;20033;-63
2023/03/03 08:30:50;;;;;;;25.55;10.27;;;4.50;99.90;;;;;;5035299;28;20619;-62
2023/03/03 08:33:17;;;;;;;24.75;10.10;;;4.50;99.90;;;;;;5035785;28;20048;-62
2023/03/03 08:35:43;;;;;;;27.08;10.07;;;4.60;99.90;;;;;;5030091;28;20522;-63
2023/03/03 08:38:12;;;;;;;22.23;9.35;;;4.70;99.90;;;;;;5035301;28;20032;-64
2023/03/03 08:40:38;;;;;;;23.63;9.88;;;4.80;99.90;;;;;;5038263;28;20052;-62
2023/03/03 08:43:04;;;;;;;21.75;9.43;;;4.80;99.90;;;;;;5042003;28;20033;-63
2023/03/03 08:45:31;;;;;;;23.60;9.07;;;4.80;99.90;;;;;;5027681;28;20060;-63
2023/03/03 08:47:58;;;;;;;21.58;9.25;;;4.90;99.90;;;;;;5030914;28;20038;-64
2023/03/03 08:50:24;;;;;;;21.20;9.43;;;5.00;99.90;;;;;;5034738;28;20056;-62
2023/03/03 08:52:50;;;;;;;22.00;9.10;;;5.00;99.90;;;;;;5024951;28;20037;-64
2023/03/03 08:55:17;;;;;;;27.55;9.35;;;5.10;99.90;;;;;;5016281;28;20044;-62
2023/03/03 08:57:43;;;;;;;22.92;9.30;;;5.00;99.90;;;;;;5017743;28;20115;-63
2023/03/03 09:00:11;;;;;;;26.10;9.82;;;5.00;99.90;;;;;;5030872;28;20108;-63
2023/03/03 09:02:37;;;;;;;25.88;10.32;;;5.00;99.90;;;;;;5030947;28;20037;-63
2023/03/03 09:05:03;;;;;;;22.83;9.52;;;5.00;99.90;;;;;;5035102;28;20487;-62
2023/03/03 09:07:29;;;;;;;23.58;9.40;;;5.00;99.90;;;;;;5040037;28;20043;-63
2023/03/03 09:09:55;;;;;;;21.58;9.40;;;5.00;99.90;;;;;;5035843;28;20041;-63
2023/03/03 09:12:35;;;;;;;20.48;9.15;;;4.90;99.90;;;;;;5033562;28;20041;-63
2023/03/03 09:15:25;;;;;;;21.10;9.18;;;4.80;99.90;;;;;;5022448;28;20036;-64
2023/03/03 09:17:52;;;;;;;22.17;9.05;;;4.80;99.90;;;;;;5031649;28;20056;-63
2023/03/03 09:20:26;;;;;;;21.40;9.02;;;4.80;99.90;;;;;;5031183;28;20484;-63
2023/03/03 09:22:51;;;;;;;20.33;8.57;;;4.90;99.90;;;;;;5031655;28;20372;-63
2023/03/03 09:25:30;;;;;;;22.02;8.82;;;5.00;99.90;;;;;;5031219;28;20047;-63
2023/03/03 09:27:57;;;;;;;22.50;9.38;;;5.20;99.90;;;;;;5035628;28;20033;-63
2023/03/03 09:30:25;;;;;;;21.90;9.35;;;5.50;99.90;;;;;;5033697;28;20049;-64
2023/03/03 09:32:52;;;;;;;17.65;8.45;;;5.70;99.90;;;;;;5034818;28;20033;-64
2023/03/03 09:35:30;;;;;;;17.65;8.50;;;6.10;99.90;;;;;;5037969;28;20049;-63
2023/03/03 09:37:56;;;;;;;18.08;8.52;;;6.30;99.90;;;;;;5038307;28;20063;-63
2023/03/03 09:40:33;;;;;;;17.00;8.30;;;6.50;99.90;;;;;;5034772;28;20045;-65
2023/03/03 09:43:16;;;;;;;20.92;8.55;;;6.60;99.90;;;;;;5031507;28;20045;-64
2023/03/03 09:45:41;;;;;;;18.75;9.00;;;6.70;99.90;;;;;;5024329;28;20504;-64
2023/03/03 09:48:29;;;;;;;17.30;8.02;;;6.90;99.90;;;;;;5030391;28;20056;-65
2023/03/03 09:51:16;;;;;;;16.83;7.75;;;6.90;99.90;;;;;;5012355;28;20482;-65
2023/03/03 09:54:06;;;;;;;13.27;7.40;;;6.90;99.90;;;;;;5038452;28;20068;-64
2023/03/03 09:56:43;;;;;;;15.45;7.25;;;7.10;99.90;;;;;;5020571;28;20411;-65
2023/03/03 09:59:41;;;;;;;17.13;8.07;;;7.60;99.90;;;;;;5034003;28;20411;-64
2023/03/03 10:02:45;;;;;;;15.35;7.97;;;7.90;99.90;;;;;;5039005;28;20128;-64
2023/03/03 10:05:39;;;;;;;16.48;6.80;;;8.10;99.90;;;;;;5023237;28;20042;-64
2023/03/03 10:08:27;;;;;;;13.65;7.22;;;7.90;99.90;;;;;;4988807;28;20128;-65
2023/03/03 10:11:00;;;;;;;13.95;6.85;;;7.90;99.90;;;;;;5028901;28;20064;-65
2023/03/03 10:13:33;;;;;;;13.05;6.82;;;7.80;99.90;;;;;;5035638;28;20499;-64
2023/03/03 10:16:11;;;;;;;12.95;6.82;;;7.80;99.90;;;;;;5028739;28;20498;-64
2023/03/03 10:19:06;;;;;;;12.35;6.88;;;7.80;99.90;;;;;;5026448;28;20041;-64
2023/03/03 10:21:38;;;;;;;12.55;6.30;;;7.60;99.90;;;;;;5025860;28;20048;-64
2023/03/03 10:24:30;;;;;;;15.80;6.80;;;7.70;99.90;;;;;;5037778;28;20087;-64
2023/03/03 10:27:12;;;;;;;11.95;7.25;;;7.60;99.90;;;;;;5030752;28;20045;-64
2023/03/03 10:30:00;;;;;;;13.48;7.22;;;7.40;99.90;;;;;;5032055;28;20057;-65
2023/03/03 10:32:47;;;;;;;14.75;7.68;;;7.20;99.90;;;;;;5034734;28;20045;-65
2023/03/03 10:35:31;;;;;;;16.10;7.30;;;7.10;99.90;;;;;;5030929;28;20159;-64
2023/03/03 10:38:15;;;;;;;12.82;6.78;;;7.00;99.90;;;;;;5026559;28;20042;-64
2023/03/03 10:40:57;;;;;;;14.95;7.35;;;6.90;99.90;;;;;;5028036;28;20057;-64
2023/03/03 10:43:23;;;;;;;13.63;7.70;;;6.90;99.90;;;;;;5035035;28;20060;-64
2023/03/03 10:46:18;;;;;;;14.40;8.00;;;7.00;99.90;;;;;;5030613;28;20510;-65
2023/03/03 10:49:05;;;;;;;17.00;7.78;;;7.00;99.90;;;;;;5032821;28;20199;-64
2023/03/03 10:51:51;;;;;;;13.63;7.25;;;7.00;99.90;;;;;;5026307;28;20049;-65
2023/03/03 10:54:37;;;;;;;12.93;7.05;;;7.00;99.90;;;;;;5030775;28;20063;-64
2023/03/03 10:57:18;;;;;;;14.65;7.30;;;7.10;99.90;;;;;;5035588;28;20391;-64
2023/03/03 10:59:47;;;;;;;;;;;7.10;99.90;;;;;;5015490;28;20034;-64
2023/03/03 11:02:52;;;;;;;12.38;6.63;;;7.10;99.90;;;;;;4996443;28;19917;-64
2023/03/03 11:05:48;;;;;;;11.10;6.53;;;7.10;99.90;;;;;;4984738;28;20057;-64
2023/03/03 11:08:27;;;;;;;13.15;7.00;;;7.10;99.90;;;;;;5032236;28;20041;-63
2023/03/03 11:11:01;;;;;;;17.08;7.00;;;7.10;99.90;;;;;;5027928;28;20038;-64
2023/03/03 11:13:53;;;;;;;15.55;7.22;;;7.20;99.90;;;;;;5035991;28;20037;-63
2023/03/03 11:16:40;;;;;;;;;;;7.20;99.90;;;;;;5040616;28;20037;-64
2023/03/03 11:19:43;;;;;;;14.45;7.53;;;7.20;99.90;;;;;;5044549;28;19998;-64
2023/03/03 11:22:36;;;;;;;14.50;7.75;;;7.20;99.90;;;;;;5029119;28;20099;-64
2023/03/03 11:25:17;;;;;;;16.38;8.50;;;7.20;99.90;;;;;;5022691;28;20492;-64
2023/03/03 11:28:01;;;;;;;15.82;8.52;;;7.20;99.90;;;;;;5016942;28;20052;-63
2023/03/03 11:30:47;;;;;;;15.70;8.60;;;7.30;99.90;;;;;;5030448;28;20135;-64
2023/03/03 11:33:33;;;;;;;16.75;9.18;;;7.30;99.90;;;;;;5042425;28;20391;-64
2023/03/03 11:36:10;;;;;;;15.48;8.88;;;7.30;99.90;;;;;;5036462;28;20029;-64
2023/03/03 11:39:00;;;;;;;18.13;9.35;;;7.30;99.90;;;;;;5035720;28;20113;-64
2023/03/03 11:41:49;;;;;;;16.58;9.07;;;7.40;99.90;;;;;;5040371;28;20482;-65
2023/03/03 11:44:23;;;;;;;18.05;8.63;;;7.40;99.90;;;;;;5040527;28;20048;-64
2023/03/03 11:47:10;;;;;;;16.17;9.20;;;7.50;99.90;;;;;;5032827;28;20056;-64
2023/03/03 11:49:46;;;;;;;16.60;8.43;;;7.60;99.90;;;;;;5040158;28;20496;-64
2023/03/03 11:52:46;;;;;;;15.45;8.48;;;7.70;99.90;;;;;;5027677;28;20041;-64
2023/03/03 11:55:23;;;;;;;14.60;8.27;;;7.70;99.90;;;;;;5028860;28;20042;-64
2023/03/03 11:58:25;;;;;;;15.52;8.68;;;7.80;99.90;;;;;;5043462;28;20032;-64
2023/03/03 12:01:16;;;;;;;15.52;7.78;;;7.70;99.90;;;;;;5023795;28;20049;-64
2023/03/03 12:03:53;;;;;;;13.60;7.05;;;7.90;99.90;;;;;;5024613;28;20041;-65
2023/03/03 12:06:41;;;;;;;11.55;5.70;;;8.00;99.90;;;;;;5040120;28;20045;-64
2023/03/03 12:09:12;;;;;;;9.57;5.20;;;8.20;99.90;;;;;;5034750;28;20464;-65
2023/03/03 12:11:53;;;;;;;;;;;8.30;99.90;;;;;;5041213;28;20068;-64
2023/03/03 12:14:34;;;;;;;12.88;5.47;;;8.40;99.90;;;;;;5036489;28;19925;-64
2023/03/03 12:17:07;;;;;;;11.33;6.53;;;8.40;99.90;;;;;;5021275;28;20034;-64
2023/03/03 12:20:00;;;;;;;12.25;6.40;;;8.40;99.90;;;;;;5021557;28;20778;-63
2023/03/03 12:22:28;;;;;;;14.90;6.60;;;8.40;99.90;;;;;;5031597;28;20073;-64
2023/03/03 12:25:08;;;;;;;13.90;7.95;;;8.50;99.90;;;;;;5041435;28;20049;-64
2023/03/03 12:27:45;;;;;;;13.38;7.57;;;8.60;99.90;;;;;;5018367;28;20049;-64
2023/03/03 12:30:23;;;;;;;12.00;6.38;;;8.70;99.90;;;;;;5037165;28;20048;-64
2023/03/03 12:32:59;;;;;;;14.52;6.03;;;8.80;99.90;;;;;;5041061;28;20059;-64
2023/03/03 12:35:52;;;;;;;9.85;5.50;;;8.90;99.90;;;;;;5030392;28;20155;-63
2023/03/03 12:38:54;;;;;;;8.88;5.38;;;9.00;99.90;;;;;;4999587;28;20462;-63
2023/03/03 12:41:30;;;;;;;8.30;4.82;;;9.00;99.90;;;;;;5039049;28;20120;-64
2023/03/03 12:44:12;;;;;;;7.95;4.80;;;9.30;99.90;;;;;;5034317;28;20049;-63
2023/03/03 12:46:44;;;;;;;11.30;4.93;;;9.30;99.90;;;;;;5037628;28;20037;-64
2023/03/03 12:49:10;;;;;;;11.65;4.28;;;9.40;99.90;;;;;;5040714;28;20041;-64
2023/03/03 12:52:23;;;;;;;4.95;3.03;;;9.50;99.90;;;;;;5034373;28;20049;-64
2023/03/03 12:55:28;;;;;;;6.07;3.53;;;9.40;99.90;;;;;;5040363;28;20033;-64
2023/03/03 12:58:02;;;;;;;5.95;3.20;;;9.20;99.90;;;;;;5043153;28;20048;-64
2023/03/03 13:00:58;;;;;;;5.22;2.85;;;9.10;99.90;;;;;;5027010;28;20037;-63
2023/03/03 13:03:32;;;;;;;5.18;2.83;;;9.00;99.90;;;;;;5039321;28;20032;-64
2023/03/03 13:06:30;;;;;;;8.13;3.45;;;8.90;99.90;;;;;;5025925;28;20037;-63
2023/03/03 13:09:22;;;;;;;4.50;2.80;;;8.90;99.90;;;;;;5026400;28;20041;-64
2023/03/03 13:12:12;;;;;;;4.75;2.85;;;9.00;99.90;;;;;;5025978;28;20116;-64
2023/03/03 13:14:55;;;;;;;5.25;2.60;;;9.00;99.90;;;;;;5028925;28;20033;-64
2023/03/03 13:17:33;;;;;;;6.63;2.78;;;9.00;99.90;;;;;;5029276;28;20056;-65
2023/03/03 13:20:24;;;;;;;4.30;2.40;;;9.00;99.90;;;;;;5027510;28;20037;-64
2023/03/03 13:23:15;;;;;;;7.63;2.90;;;9.00;99.90;;;;;;4985439;28;20107;-62
2023/03/03 13:25:46;;;;;;;5.03;3.08;;;9.10;99.90;;;;;;5023777;28;20073;-64
2023/03/03 13:28:25;;;;;;;11.35;2.90;;;9.00;99.90;;;;;;5013945;28;20051;-64
2023/03/03 13:30:56;;;;;;;5.10;3.33;;;9.00;99.90;;;;;;5024083;28;20045;-64
2023/03/03 13:33:50;;;;;;;8.15;3.58;;;9.10;99.90;;;;;;5031198;28;20467;-64
2023/03/03 13:36:17;;;;;;;4.63;3.13;;;9.20;99.90;;;;;;5034484;28;20052;-64